sensor_id;sensor_type;location;lat;lon;timestamp;P1;durP1;ratioP1;P2;durP2;ratioP2
71639;SDS011;60912;48.968;10.124;2023-04-25T00:00:20;5.50;;;2.40;;
71639;SDS011;60912;48.968;10.124;2023-04-25T00:02:46;4.27;;;2.40;;
71639;SDS011;60912;48.968;10.124;2023-04-25T00:05:11;4.20;;;2.40;;
71639;SDS011;60912;48.968;10.124;2023-04-25T00:07:37;6.57;;;2.40;;
71639;SDS011;60912;48.968;10.124;2023-04-25T00:10:03;4.07;;;2.20;;
71639;SDS011;60912;48.968;10.124;2023-04-25T00:12:29;5.28;;;2.17;;
71639;SDS011;60912;48.968;10.124;2023-04-25T00:14:54;3.73;;;2.20;;
71639;SDS011;60912;48.968;10.124;2023-04-25T00:17:22;4.13;;;2.58;;
71639;SDS011;60912;48.968;10.124;2023-04-25T00:19:49;4.85;;;2.60;;
71639;SDS011;60912;48.968;10.124;2023-04-25T00:22:15;4.17;;;2.30;;
71639;SDS011;60912;48.968;10.124;2023-04-25T00:24:41;4.15;;;2.10;;
71639;SDS011;60912;48.968;10.124;2023-04-25T00:27:06;4.23;;;2.33;;
71639;SDS011;60912;48.968;10.124;2023-04-25T00:29:32;3.65;;;2.05;;
71639;SDS011;60912;48.968;10.124;2023-04-25T00:31:57;5.03;;;2.40;;
71639;SDS011;60912;48.968;10.124;2023-04-25T00:34:22;5.17;;;2.57;;
71639;SDS011;60912;48.968;10.124;2023-04-25T00:36:48;4.73;;;2.37;;
71639;SDS011;60912;48.968;10.124;2023-04-25T00:39:13;6.03;;;2.03;;
71639;SDS011;60912;48.968;10.124;2023-04-25T00:41:38;4.40;;;2.20;;
71639;SDS011;60912;48.968;10.124;2023-04-25T00:44:04;4.32;;;2.40;;
71639;SDS011;60912;48.968;10.124;2023-04-25T00:46:31;4.32;;;2.40;;
71639;SDS011;60912;48.968;10.124;2023-04-25T00:48:57;3.83;;;2.20;;
71639;SDS011;60912;48.968;10.124;2023-04-25T00:51:23;3.67;;;2.03;;
71639;SDS011;60912;48.968;10.124;2023-04-25T00:53:50;6.37;;;2.40;;
71639;SDS011;60912;48.968;10.124;2023-04-25T00:56:16;5.05;;;2.15;;
71639;SDS011;60912;48.968;10.124;2023-04-25T00:58:41;3.83;;;2.40;;
71639;SDS011;60912;48.968;10.124;2023-04-25T01:01:07;4.10;;;1.83;;
71639;SDS011;60912;48.968;10.124;2023-04-25T01:03:33;4.53;;;2.30;;
71639;SDS011;60912;48.968;10.124;2023-04-25T01:06:01;4.50;;;2.27;;
71639;SDS011;60912;48.968;10.124;2023-04-25T01:08:27;3.88;;;2.28;;
71639;SDS011;60912;48.968;10.124;2023-04-25T01:10:52;4.40;;;2.00;;
71639;SDS011;60912;48.968;10.124;2023-04-25T01:13:18;4.90;;;2.40;;
71639;SDS011;60912;48.968;10.124;2023-04-25T01:15:43;4.43;;;2.40;;
71639;SDS011;60912;48.968;10.124;2023-04-25T01:18:09;4.63;;;2.00;;
71639;SDS011;60912;48.968;10.124;2023-04-25T01:20:34;5.90;;;2.20;;
71639;SDS011;60912;48.968;10.124;2023-04-25T01:23:02;5.30;;;2.58;;
71639;SDS011;60912;48.968;10.124;2023-04-25T01:25:28;3.90;;;2.10;;
71639;SDS011;60912;48.968;10.124;2023-04-25T01:27:55;4.40;;;2.30;;
71639;SDS011;60912;48.968;10.124;2023-04-25T01:30:20;3.95;;;2.17;;
71639;SDS011;60912;48.968;10.124;2023-04-25T01:32:46;4.75;;;2.35;;
71639;SDS011;60912;48.968;10.124;2023-04-25T01:35:13;5.93;;;2.50;;
71639;SDS011;60912;48.968;10.124;2023-04-25T01:37:39;4.20;;;2.20;;
71639;SDS011;60912;48.968;10.124;2023-04-25T01:40:05;4.18;;;2.15;;
71639;SDS011;60912;48.968;10.124;2023-04-25T01:42:32;5.60;;;2.17;;
71639;SDS011;60912;48.968;10.124;2023-04-25T01:44:59;3.92;;;2.30;;
71639;SDS011;60912;48.968;10.124;2023-04-25T01:47:24;4.43;;;2.30;;
71639;SDS011;60912;48.968;10.124;2023-04-25T01:49:50;3.60;;;2.30;;
71639;SDS011;60912;48.968;10.124;2023-04-25T01:52:16;4.70;;;2.40;;
71639;SDS011;60912;48.968;10.124;2023-04-25T01:54:41;5.37;;;2.10;;
71639;SDS011;60912;48.968;10.124;2023-04-25T01:57:09;3.85;;;2.20;;
71639;SDS011;60912;48.968;10.124;2023-04-25T01:59:36;4.03;;;2.45;;
71639;SDS011;60912;48.968;10.124;2023-04-25T02:02:01;3.60;;;2.30;;
71639;SDS011;60912;48.968;10.124;2023-04-25T02:04:29;3.58;;;2.15;;
71639;SDS011;60912;48.968;10.124;2023-04-25T02:06:54;5.43;;;2.30;;
71639;SDS011;60912;48.968;10.124;2023-04-25T02:09:20;5.50;;;2.53;;
71639;SDS011;60912;48.968;10.124;2023-04-25T02:11:45;4.80;;;2.40;;
71639;SDS011;60912;48.968;10.124;2023-04-25T02:14:10;4.20;;;2.60;;
71639;SDS011;60912;48.968;10.124;2023-04-25T02:16:36;4.73;;;2.50;;
71639;SDS011;60912;48.968;10.124;2023-04-25T02:19:02;3.83;;;2.35;;
71639;SDS011;60912;48.968;10.124;2023-04-25T02:21:27;3.93;;;2.50;;
71639;SDS011;60912;48.968;10.124;2023-04-25T02:23:56;4.47;;;2.50;;
71639;SDS011;60912;48.968;10.124;2023-04-25T02:26:21;5.25;;;2.35;;
71639;SDS011;60912;48.968;10.124;2023-04-25T02:28:48;4.10;;;2.40;;
71639;SDS011;60912;48.968;10.124;2023-04-25T02:31:14;4.50;;;2.40;;
71639;SDS011;60912;48.968;10.124;2023-04-25T02:33:40;3.67;;;2.33;;
71639;SDS011;60912;48.968;10.124;2023-04-25T02:36:05;4.73;;;2.50;;
71639;SDS011;60912;48.968;10.124;2023-04-25T02:38:31;3.42;;;2.20;;
71639;SDS011;60912;48.968;10.124;2023-04-25T02:40:56;3.70;;;2.30;;
71639;SDS011;60912;48.968;10.124;2023-04-25T02:43:21;6.93;;;2.40;;
71639;SDS011;60912;48.968;10.124;2023-04-25T02:45:47;5.70;;;2.43;;
71639;SDS011;60912;48.968;10.124;2023-04-25T02:48:12;8.27;;;2.30;;
71639;SDS011;60912;48.968;10.124;2023-04-25T02:50:37;3.90;;;2.33;;
71639;SDS011;60912;48.968;10.124;2023-04-25T02:53:03;3.85;;;2.20;;
71639;SDS011;60912;48.968;10.124;2023-04-25T02:55:28;6.23;;;2.70;;
71639;SDS011;60912;48.968;10.124;2023-04-25T02:57:54;5.47;;;2.40;;
71639;SDS011;60912;48.968;10.124;2023-04-25T03:00:20;4.00;;;2.35;;
71639;SDS011;60912;48.968;10.124;2023-04-25T03:02:47;4.05;;;2.10;;
71639;SDS011;60912;48.968;10.124;2023-04-25T03:05:12;5.73;;;2.40;;
71639;SDS011;60912;48.968;10.124;2023-04-25T03:07:38;3.70;;;2.40;;
71639;SDS011;60912;48.968;10.124;2023-04-25T03:10:05;4.55;;;2.33;;
71639;SDS011;60912;48.968;10.124;2023-04-25T03:12:31;4.43;;;2.60;;
71639;SDS011;60912;48.968;10.124;2023-04-25T03:14:56;4.13;;;2.47;;
71639;SDS011;60912;48.968;10.124;2023-04-25T03:17:22;7.23;;;2.63;;
71639;SDS011;60912;48.968;10.124;2023-04-25T03:19:47;5.77;;;2.43;;
71639;SDS011;60912;48.968;10.124;2023-04-25T03:22:13;4.93;;;2.50;;
71639;SDS011;60912;48.968;10.124;2023-04-25T03:24:38;4.17;;;2.23;;
71639;SDS011;60912;48.968;10.124;2023-04-25T03:27:03;4.53;;;2.40;;
71639;SDS011;60912;48.968;10.124;2023-04-25T03:29:29;6.63;;;2.47;;
71639;SDS011;60912;48.968;10.124;2023-04-25T03:31:55;5.37;;;2.23;;
71639;SDS011;60912;48.968;10.124;2023-04-25T03:34:20;6.72;;;2.45;;
71639;SDS011;60912;48.968;10.124;2023-04-25T03:36:46;5.03;;;2.57;;
71639;SDS011;60912;48.968;10.124;2023-04-25T03:39:12;4.82;;;2.30;;
71639;SDS011;60912;48.968;10.124;2023-04-25T03:41:37;4.90;;;2.40;;
71639;SDS011;60912;48.968;10.124;2023-04-25T03:44:02;4.83;;;2.20;;
71639;SDS011;60912;48.968;10.124;2023-04-25T03:46:28;4.63;;;2.38;;
71639;SDS011;60912;48.968;10.124;2023-04-25T03:48:53;3.90;;;2.30;;
71639;SDS011;60912;48.968;10.124;2023-04-25T03:51:19;3.70;;;2.20;;
71639;SDS011;60912;48.968;10.124;2023-04-25T03:53:44;5.80;;;2.50;;
71639;SDS011;60912;48.968;10.124;2023-04-25T03:56:09;4.70;;;2.50;;
71639;SDS011;60912;48.968;10.124;2023-04-25T03:58:35;5.15;;;2.85;;
71639;SDS011;60912;48.968;10.124;2023-04-25T04:01:00;4.30;;;2.50;;
71639;SDS011;60912;48.968;10.124;2023-04-25T04:03:28;5.05;;;2.20;;
71639;SDS011;60912;48.968;10.124;2023-04-25T04:05:53;3.97;;;2.27;;
71639;SDS011;60912;48.968;10.124;2023-04-25T04:08:18;3.60;;;2.40;;
71639;SDS011;60912;48.968;10.124;2023-04-25T04:10:44;4.27;;;2.50;;
71639;SDS011;60912;48.968;10.124;2023-04-25T04:13:09;3.83;;;2.47;;
71639;SDS011;60912;48.968;10.124;2023-04-25T04:15:38;5.05;;;2.30;;
71639;SDS011;60912;48.968;10.124;2023-04-25T04:18:03;4.73;;;2.30;;
71639;SDS011;60912;48.968;10.124;2023-04-25T04:20:29;5.53;;;2.20;;
71639;SDS011;60912;48.968;10.124;2023-04-25T04:22:57;4.88;;;2.30;;
71639;SDS011;60912;48.968;10.124;2023-04-25T04:25:22;4.53;;;2.40;;
71639;SDS011;60912;48.968;10.124;2023-04-25T04:27:49;5.10;;;2.30;;
71639;SDS011;60912;48.968;10.124;2023-04-25T04:30:16;4.70;;;2.13;;
71639;SDS011;60912;48.968;10.124;2023-04-25T04:32:42;4.60;;;2.58;;
71639;SDS011;60912;48.968;10.124;2023-04-25T04:35:08;6.07;;;2.75;;
71639;SDS011;60912;48.968;10.124;2023-04-25T04:37:34;5.17;;;2.80;;
71639;SDS011;60912;48.968;10.124;2023-04-25T04:39:59;3.70;;;2.30;;
71639;SDS011;60912;48.968;10.124;2023-04-25T04:42:31;5.28;;;2.33;;
71639;SDS011;60912;48.968;10.124;2023-04-25T04:44:56;4.27;;;2.30;;
71639;SDS011;60912;48.968;10.124;2023-04-25T04:47:23;4.32;;;2.30;;
71639;SDS011;60912;48.968;10.124;2023-04-25T04:49:49;4.20;;;2.40;;
71639;SDS011;60912;48.968;10.124;2023-04-25T04:52:14;6.07;;;2.50;;
71639;SDS011;60912;48.968;10.124;2023-04-25T04:54:40;4.10;;;2.40;;
71639;SDS011;60912;48.968;10.124;2023-04-25T04:57:08;3.73;;;2.20;;
71639;SDS011;60912;48.968;10.124;2023-04-25T04:59:33;4.60;;;2.38;;
71639;SDS011;60912;48.968;10.124;2023-04-25T05:01:59;5.30;;;2.58;;
71639;SDS011;60912;48.968;10.124;2023-04-25T05:04:25;5.80;;;2.37;;
71639;SDS011;60912;48.968;10.124;2023-04-25T05:06:50;4.73;;;2.20;;
71639;SDS011;60912;48.968;10.124;2023-04-25T05:09:16;4.60;;;2.40;;
71639;SDS011;60912;48.968;10.124;2023-04-25T05:11:41;5.27;;;2.70;;
71639;SDS011;60912;48.968;10.124;2023-04-25T05:14:07;5.18;;;2.55;;
71639;SDS011;60912;48.968;10.124;2023-04-25T05:16:32;6.30;;;2.60;;
71639;SDS011;60912;48.968;10.124;2023-04-25T05:18:57;4.27;;;2.50;;
71639;SDS011;60912;48.968;10.124;2023-04-25T05:21:23;4.03;;;2.30;;
71639;SDS011;60912;48.968;10.124;2023-04-25T05:23:48;5.80;;;2.20;;
71639;SDS011;60912;48.968;10.124;2023-04-25T05:26:14;5.75;;;2.72;;
71639;SDS011;60912;48.968;10.124;2023-04-25T05:28:40;7.10;;;2.97;;
71639;SDS011;60912;48.968;10.124;2023-04-25T05:31:06;4.88;;;3.00;;
71639;SDS011;60912;48.968;10.124;2023-04-25T05:33:32;6.30;;;2.85;;
71639;SDS011;60912;48.968;10.124;2023-04-25T05:35:57;6.47;;;2.90;;
71639;SDS011;60912;48.968;10.124;2023-04-25T05:38:23;4.50;;;2.73;;
71639;SDS011;60912;48.968;10.124;2023-04-25T05:40:48;5.90;;;3.00;;
71639;SDS011;60912;48.968;10.124;2023-04-25T05:43:13;5.63;;;2.90;;
71639;SDS011;60912;48.968;10.124;2023-04-25T05:45:39;5.80;;;2.80;;
71639;SDS011;60912;48.968;10.124;2023-04-25T05:48:04;6.55;;;3.10;;
71639;SDS011;60912;48.968;10.124;2023-04-25T05:50:30;4.77;;;3.03;;
71639;SDS011;60912;48.968;10.124;2023-04-25T05:52:55;9.02;;;3.33;;
71639;SDS011;60912;48.968;10.124;2023-04-25T05:55:21;5.70;;;3.10;;
71639;SDS011;60912;48.968;10.124;2023-04-25T05:57:46;6.57;;;3.37;;
71639;SDS011;60912;48.968;10.124;2023-04-25T06:00:12;6.90;;;3.10;;
71639;SDS011;60912;48.968;10.124;2023-04-25T06:02:40;5.03;;;3.13;;
71639;SDS011;60912;48.968;10.124;2023-04-25T06:05:05;5.60;;;3.10;;
71639;SDS011;60912;48.968;10.124;2023-04-25T06:07:31;6.03;;;3.27;;
71639;SDS011;60912;48.968;10.124;2023-04-25T06:09:57;6.90;;;2.83;;
71639;SDS011;60912;48.968;10.124;2023-04-25T06:12:22;4.50;;;2.78;;
71639;SDS011;60912;48.968;10.124;2023-04-25T06:14:48;6.20;;;3.40;;
71639;SDS011;60912;48.968;10.124;2023-04-25T06:17:13;5.10;;;2.90;;
71639;SDS011;60912;48.968;10.124;2023-04-25T06:19:38;6.30;;;3.20;;
71639;SDS011;60912;48.968;10.124;2023-04-25T06:22:04;4.20;;;2.70;;
71639;SDS011;60912;48.968;10.124;2023-04-25T06:24:29;5.17;;;2.87;;
71639;SDS011;60912;48.968;10.124;2023-04-25T06:26:54;5.40;;;2.67;;
71639;SDS011;60912;48.968;10.124;2023-04-25T06:29:20;6.23;;;2.70;;
71639;SDS011;60912;48.968;10.124;2023-04-25T06:31:45;6.45;;;2.80;;
71639;SDS011;60912;48.968;10.124;2023-04-25T06:34:11;6.27;;;2.83;;
71639;SDS011;60912;48.968;10.124;2023-04-25T06:36:36;6.53;;;3.10;;
71639;SDS011;60912;48.968;10.124;2023-04-25T06:39:02;6.57;;;2.80;;
71639;SDS011;60912;48.968;10.124;2023-04-25T06:41:27;5.83;;;3.00;;
71639;SDS011;60912;48.968;10.124;2023-04-25T06:43:53;5.97;;;3.20;;
71639;SDS011;60912;48.968;10.124;2023-04-25T06:46:18;7.03;;;3.20;;
71639;SDS011;60912;48.968;10.124;2023-04-25T06:48:44;5.38;;;2.92;;
71639;SDS011;60912;48.968;10.124;2023-04-25T06:51:09;6.40;;;3.20;;
71639;SDS011;60912;48.968;10.124;2023-04-25T06:53:35;4.50;;;2.87;;
71639;SDS011;60912;48.968;10.124;2023-04-25T06:56:01;7.87;;;3.57;;
71639;SDS011;60912;48.968;10.124;2023-04-25T06:58:26;6.73;;;3.10;;
71639;SDS011;60912;48.968;10.124;2023-04-25T07:00:51;6.88;;;3.50;;
71639;SDS011;60912;48.968;10.124;2023-04-25T07:03:17;5.47;;;3.67;;
71639;SDS011;60912;48.968;10.124;2023-04-25T07:05:42;5.40;;;3.90;;
71639;SDS011;60912;48.968;10.124;2023-04-25T07:08:07;6.13;;;3.90;;
71639;SDS011;60912;48.968;10.124;2023-04-25T07:10:33;5.13;;;3.73;;
71639;SDS011;60912;48.968;10.124;2023-04-25T07:12:58;8.82;;;3.60;;
71639;SDS011;60912;48.968;10.124;2023-04-25T07:15:24;5.47;;;4.33;;
71639;SDS011;60912;48.968;10.124;2023-04-25T07:17:49;6.40;;;4.33;;
71639;SDS011;60912;48.968;10.124;2023-04-25T07:20:15;6.00;;;3.80;;
71639;SDS011;60912;48.968;10.124;2023-04-25T07:22:41;6.18;;;4.60;;
71639;SDS011;60912;48.968;10.124;2023-04-25T07:25:06;5.23;;;3.67;;
71639;SDS011;60912;48.968;10.124;2023-04-25T07:27:33;5.93;;;3.58;;
71639;SDS011;60912;48.968;10.124;2023-04-25T07:29:59;6.93;;;3.73;;
71639;SDS011;60912;48.968;10.124;2023-04-25T07:32:24;6.38;;;3.95;;
71639;SDS011;60912;48.968;10.124;2023-04-25T07:34:50;7.20;;;3.67;;
71639;SDS011;60912;48.968;10.124;2023-04-25T07:37:16;7.00;;;3.60;;
71639;SDS011;60912;48.968;10.124;2023-04-25T07:39:43;6.32;;;3.65;;
71639;SDS011;60912;48.968;10.124;2023-04-25T07:42:12;5.73;;;3.73;;
71639;SDS011;60912;48.968;10.124;2023-04-25T07:44:38;5.45;;;3.42;;
71639;SDS011;60912;48.968;10.124;2023-04-25T07:47:05;6.00;;;4.00;;
71639;SDS011;60912;48.968;10.124;2023-04-25T07:49:34;6.75;;;4.15;;
71639;SDS011;60912;48.968;10.124;2023-04-25T07:52:00;4.80;;;3.17;;
71639;SDS011;60912;48.968;10.124;2023-04-25T07:54:26;6.20;;;4.43;;
71639;SDS011;60912;48.968;10.124;2023-04-25T07:56:51;8.68;;;3.85;;
71639;SDS011;60912;48.968;10.124;2023-04-25T07:59:17;9.77;;;3.43;;
71639;SDS011;60912;48.968;10.124;2023-04-25T08:01:42;5.10;;;3.00;;
71639;SDS011;60912;48.968;10.124;2023-04-25T08:04:08;7.43;;;3.00;;
71639;SDS011;60912;48.968;10.124;2023-04-25T08:06:33;6.03;;;3.50;;
71639;SDS011;60912;48.968;10.124;2023-04-25T08:08:59;5.40;;;2.30;;
71639;SDS011;60912;48.968;10.124;2023-04-25T08:11:25;3.75;;;1.98;;
71639;SDS011;60912;48.968;10.124;2023-04-25T08:13:50;3.30;;;2.10;;
71639;SDS011;60912;48.968;10.124;2023-04-25T08:16:18;4.63;;;2.20;;
71639;SDS011;60912;48.968;10.124;2023-04-25T08:18:43;3.50;;;1.93;;
71639;SDS011;60912;48.968;10.124;2023-04-25T08:21:08;4.03;;;2.10;;
71639;SDS011;60912;48.968;10.124;2023-04-25T08:23:36;4.63;;;2.65;;
71639;SDS011;60912;48.968;10.124;2023-04-25T08:26:02;4.97;;;2.13;;
71639;SDS011;60912;48.968;10.124;2023-04-25T08:28:28;3.67;;;2.20;;
71639;SDS011;60912;48.968;10.124;2023-04-25T08:30:53;3.80;;;2.10;;
71639;SDS011;60912;48.968;10.124;2023-04-25T08:33:19;3.63;;;2.30;;
71639;SDS011;60912;48.968;10.124;2023-04-25T08:35:44;4.83;;;2.40;;
71639;SDS011;60912;48.968;10.124;2023-04-25T08:38:10;4.20;;;2.60;;
71639;SDS011;60912;48.968;10.124;2023-04-25T08:40:37;7.03;;;3.10;;
71639;SDS011;60912;48.968;10.124;2023-04-25T08:43:03;4.70;;;2.75;;
71639;SDS011;60912;48.968;10.124;2023-04-25T08:45:36;4.68;;;3.13;;
71639;SDS011;60912;48.968;10.124;2023-04-25T08:48:04;6.83;;;3.10;;
71639;SDS011;60912;48.968;10.124;2023-04-25T08:50:31;7.40;;;3.30;;
71639;SDS011;60912;48.968;10.124;2023-04-25T08:52:57;6.07;;;3.08;;
71639;SDS011;60912;48.968;10.124;2023-04-25T08:55:26;4.33;;;2.70;;
71639;SDS011;60912;48.968;10.124;2023-04-25T08:57:53;4.78;;;2.83;;
71639;SDS011;60912;48.968;10.124;2023-04-25T09:00:19;5.50;;;2.70;;
71639;SDS011;60912;48.968;10.124;2023-04-25T09:02:45;4.87;;;2.60;;
71639;SDS011;60912;48.968;10.124;2023-04-25T09:05:12;4.05;;;2.47;;
71639;SDS011;60912;48.968;10.124;2023-04-25T09:07:39;6.00;;;2.70;;
71639;SDS011;60912;48.968;10.124;2023-04-25T09:10:04;5.40;;;3.20;;
71639;SDS011;60912;48.968;10.124;2023-04-25T09:12:30;4.90;;;3.00;;
71639;SDS011;60912;48.968;10.124;2023-04-25T09:17:32;6.47;;;3.25;;
71639;SDS011;60912;48.968;10.124;2023-04-25T09:20:07;6.93;;;3.63;;
71639;SDS011;60912;48.968;10.124;2023-04-25T09:22:33;8.32;;;3.65;;
71639;SDS011;60912;48.968;10.124;2023-04-25T09:25:01;7.80;;;3.85;;
71639;SDS011;60912;48.968;10.124;2023-04-25T09:27:29;5.78;;;3.42;;
71639;SDS011;60912;48.968;10.124;2023-04-25T09:29:57;7.57;;;4.00;;
71639;SDS011;60912;48.968;10.124;2023-04-25T09:32:27;6.45;;;3.05;;
71639;SDS011;60912;48.968;10.124;2023-04-25T09:34:53;6.33;;;3.40;;
71639;SDS011;60912;48.968;10.124;2023-04-25T09:37:27;6.85;;;4.00;;
71639;SDS011;60912;48.968;10.124;2023-04-25T09:39:54;7.45;;;4.13;;
71639;SDS011;60912;48.968;10.124;2023-04-25T09:42:22;8.45;;;5.28;;
71639;SDS011;60912;48.968;10.124;2023-04-25T09:44:51;6.68;;;5.00;;
71639;SDS011;60912;48.968;10.124;2023-04-25T09:47:22;8.00;;;4.77;;
71639;SDS011;60912;48.968;10.124;2023-04-25T09:49:49;6.60;;;4.55;;
71639;SDS011;60912;48.968;10.124;2023-04-25T09:52:22;8.55;;;5.10;;
71639;SDS011;60912;48.968;10.124;2023-04-25T09:54:49;10.30;;;4.70;;
71639;SDS011;60912;48.968;10.124;2023-04-25T10:02:15;8.90;;;3.70;;
71639;SDS011;60912;48.968;10.124;2023-04-25T10:04:44;6.95;;;3.83;;
71639;SDS011;60912;48.968;10.124;2023-04-25T10:07:13;9.13;;;4.00;;
71639;SDS011;60912;48.968;10.124;2023-04-25T10:09:39;7.13;;;4.00;;
71639;SDS011;60912;48.968;10.124;2023-04-25T10:12:06;8.95;;;4.00;;
71639;SDS011;60912;48.968;10.124;2023-04-25T10:14:33;5.40;;;3.70;;
71639;SDS011;60912;48.968;10.124;2023-04-25T10:16:59;5.70;;;3.42;;
71639;SDS011;60912;48.968;10.124;2023-04-25T10:19:25;5.47;;;3.67;;
71639;SDS011;60912;48.968;10.124;2023-04-25T10:22:34;6.23;;;3.47;;
71639;SDS011;60912;48.968;10.124;2023-04-25T10:24:43;8.70;;;3.53;;
71639;SDS011;60912;48.968;10.124;2023-04-25T10:27:11;8.07;;;3.92;;
71639;SDS011;60912;48.968;10.124;2023-04-25T10:29:37;5.90;;;3.10;;
71639;SDS011;60912;48.968;10.124;2023-04-25T10:32:03;4.97;;;2.80;;
71639;SDS011;60912;48.968;10.124;2023-04-25T10:37:04;5.20;;;3.10;;
71639;SDS011;60912;48.968;10.124;2023-04-25T10:39:30;5.90;;;3.40;;
71639;SDS011;60912;48.968;10.124;2023-04-25T10:41:58;6.78;;;3.60;;
71639;SDS011;60912;48.968;10.124;2023-04-25T10:44:28;5.38;;;3.30;;
71639;SDS011;60912;48.968;10.124;2023-04-25T10:46:55;6.00;;;3.30;;
71639;SDS011;60912;48.968;10.124;2023-04-25T10:49:31;5.43;;;3.58;;
71639;SDS011;60912;48.968;10.124;2023-04-25T10:54:45;6.35;;;3.28;;
71639;SDS011;60912;48.968;10.124;2023-04-25T10:57:27;5.95;;;2.80;;
71639;SDS011;60912;48.968;10.124;2023-04-25T11:02:37;5.30;;;3.50;;
71639;SDS011;60912;48.968;10.124;2023-04-25T11:05:05;6.93;;;3.77;;
71639;SDS011;60912;48.968;10.124;2023-04-25T11:07:39;6.38;;;3.53;;
71639;SDS011;60912;48.968;10.124;2023-04-25T11:10:14;6.18;;;3.92;;
71639;SDS011;60912;48.968;10.124;2023-04-25T11:12:39;7.33;;;3.30;;
71639;SDS011;60912;48.968;10.124;2023-04-25T11:15:05;5.55;;;3.40;;
71639;SDS011;60912;48.968;10.124;2023-04-25T11:17:33;5.05;;;3.13;;
71639;SDS011;60912;48.968;10.124;2023-04-25T11:19:59;5.37;;;3.30;;
71639;SDS011;60912;48.968;10.124;2023-04-25T11:22:26;5.32;;;2.85;;
71639;SDS011;60912;48.968;10.124;2023-04-25T11:24:52;5.40;;;3.53;;
71639;SDS011;60912;48.968;10.124;2023-04-25T11:27:18;6.50;;;3.63;;
71639;SDS011;60912;48.968;10.124;2023-04-25T11:29:44;4.73;;;3.20;;
71639;SDS011;60912;48.968;10.124;2023-04-25T11:32:10;5.93;;;3.58;;
71639;SDS011;60912;48.968;10.124;2023-04-25T11:34:35;5.57;;;3.40;;
71639;SDS011;60912;48.968;10.124;2023-04-25T11:37:01;6.70;;;3.07;;
71639;SDS011;60912;48.968;10.124;2023-04-25T11:39:27;6.28;;;3.20;;
71639;SDS011;60912;48.968;10.124;2023-04-25T11:41:54;5.82;;;2.83;;
71639;SDS011;60912;48.968;10.124;2023-04-25T11:44:20;4.80;;;2.42;;
71639;SDS011;60912;48.968;10.124;2023-04-25T11:46:46;5.27;;;2.70;;
71639;SDS011;60912;48.968;10.124;2023-04-25T11:49:12;5.25;;;2.53;;
71639;SDS011;60912;48.968;10.124;2023-04-25T11:51:39;6.20;;;2.60;;
71639;SDS011;60912;48.968;10.124;2023-04-25T11:54:12;6.05;;;2.88;;
71639;SDS011;60912;48.968;10.124;2023-04-25T11:56:41;5.30;;;3.07;;
71639;SDS011;60912;48.968;10.124;2023-04-25T11:59:08;5.47;;;2.72;;
71639;SDS011;60912;48.968;10.124;2023-04-25T12:06:42;5.05;;;2.38;;
71639;SDS011;60912;48.968;10.124;2023-04-25T12:09:09;5.43;;;2.38;;
71639;SDS011;60912;48.968;10.124;2023-04-25T12:11:47;5.50;;;2.72;;
71639;SDS011;60912;48.968;10.124;2023-04-25T12:14:29;4.80;;;1.90;;
71639;SDS011;60912;48.968;10.124;2023-04-25T12:17:00;6.03;;;2.20;;
71639;SDS011;60912;48.968;10.124;2023-04-25T12:19:29;3.72;;;2.17;;
71639;SDS011;60912;48.968;10.124;2023-04-25T12:22:21;4.63;;;2.20;;
71639;SDS011;60912;48.968;10.124;2023-04-25T12:24:48;4.15;;;2.28;;
71639;SDS011;60912;48.968;10.124;2023-04-25T12:27:14;5.93;;;2.60;;
71639;SDS011;60912;48.968;10.124;2023-04-25T12:29:49;4.70;;;2.38;;
71639;SDS011;60912;48.968;10.124;2023-04-25T12:32:16;5.90;;;2.20;;
71639;SDS011;60912;48.968;10.124;2023-04-25T12:34:42;5.03;;;1.92;;
71639;SDS011;60912;48.968;10.124;2023-04-25T12:37:08;4.80;;;1.90;;
71639;SDS011;60912;48.968;10.124;2023-04-25T12:39:34;4.97;;;2.40;;
71639;SDS011;60912;48.968;10.124;2023-04-25T12:41:59;6.23;;;3.13;;
71639;SDS011;60912;48.968;10.124;2023-04-25T12:44:24;3.80;;;2.20;;
71639;SDS011;60912;48.968;10.124;2023-04-25T12:46:50;5.32;;;1.90;;
71639;SDS011;60912;48.968;10.124;2023-04-25T12:49:16;5.07;;;2.00;;
71639;SDS011;60912;48.968;10.124;2023-04-25T12:51:41;5.97;;;2.17;;
71639;SDS011;60912;48.968;10.124;2023-04-25T12:54:07;5.20;;;2.10;;
71639;SDS011;60912;48.968;10.124;2023-04-25T12:56:33;5.47;;;2.20;;
71639;SDS011;60912;48.968;10.124;2023-04-25T12:59:00;4.75;;;1.90;;
71639;SDS011;60912;48.968;10.124;2023-04-25T13:01:27;4.15;;;2.28;;
71639;SDS011;60912;48.968;10.124;2023-04-25T13:03:53;4.40;;;2.20;;
71639;SDS011;60912;48.968;10.124;2023-04-25T13:06:19;4.55;;;2.20;;
71639;SDS011;60912;48.968;10.124;2023-04-25T13:08:45;4.90;;;2.53;;
71639;SDS011;60912;48.968;10.124;2023-04-25T13:11:11;4.68;;;2.50;;
71639;SDS011;60912;48.968;10.124;2023-04-25T13:13:43;5.18;;;2.40;;
71639;SDS011;60912;48.968;10.124;2023-04-25T13:16:09;5.17;;;2.30;;
71639;SDS011;60912;48.968;10.124;2023-04-25T13:18:35;4.55;;;1.90;;
71639;SDS011;60912;48.968;10.124;2023-04-25T13:21:02;3.67;;;2.03;;
71639;SDS011;60912;48.968;10.124;2023-04-25T13:23:31;5.70;;;2.20;;
71639;SDS011;60912;48.968;10.124;2023-04-25T13:25:56;5.07;;;2.50;;
71639;SDS011;60912;48.968;10.124;2023-04-25T13:28:26;5.53;;;3.13;;
71639;SDS011;60912;48.968;10.124;2023-04-25T13:30:52;6.63;;;2.80;;
71639;SDS011;60912;48.968;10.124;2023-04-25T13:33:19;6.03;;;2.90;;
71639;SDS011;60912;48.968;10.124;2023-04-25T13:35:50;5.47;;;2.95;;
71639;SDS011;60912;48.968;10.124;2023-04-25T13:38:21;6.53;;;2.92;;
71639;SDS011;60912;48.968;10.124;2023-04-25T13:40:49;5.18;;;2.55;;
71639;SDS011;60912;48.968;10.124;2023-04-25T13:43:17;5.40;;;2.60;;
71639;SDS011;60912;48.968;10.124;2023-04-25T13:45:43;4.77;;;3.10;;
71639;SDS011;60912;48.968;10.124;2023-04-25T13:48:08;5.95;;;2.90;;
71639;SDS011;60912;48.968;10.124;2023-04-25T13:50:34;6.30;;;2.73;;
71639;SDS011;60912;48.968;10.124;2023-04-25T13:53:02;8.07;;;2.63;;
71639;SDS011;60912;48.968;10.124;2023-04-25T13:55:27;4.77;;;2.93;;
71639;SDS011;60912;48.968;10.124;2023-04-25T13:57:56;5.65;;;2.70;;
71639;SDS011;60912;48.968;10.124;2023-04-25T14:00:22;4.47;;;2.27;;
71639;SDS011;60912;48.968;10.124;2023-04-25T14:02:48;5.50;;;2.30;;
71639;SDS011;60912;48.968;10.124;2023-04-25T14:05:13;4.73;;;2.80;;
71639;SDS011;60912;48.968;10.124;2023-04-25T14:07:41;4.90;;;2.50;;
71639;SDS011;60912;48.968;10.124;2023-04-25T14:10:07;6.10;;;2.70;;
71639;SDS011;60912;48.968;10.124;2023-04-25T14:12:33;6.28;;;2.40;;
71639;SDS011;60912;48.968;10.124;2023-04-25T14:14:58;4.80;;;2.40;;
71639;SDS011;60912;48.968;10.124;2023-04-25T14:17:27;4.38;;;2.30;;
71639;SDS011;60912;48.968;10.124;2023-04-25T14:19:52;6.03;;;2.00;;
71639;SDS011;60912;48.968;10.124;2023-04-25T14:22:24;4.88;;;2.20;;
71639;SDS011;60912;48.968;10.124;2023-04-25T14:24:50;5.95;;;2.33;;
71639;SDS011;60912;48.968;10.124;2023-04-25T14:27:16;5.67;;;2.30;;
71639;SDS011;60912;48.968;10.124;2023-04-25T14:29:41;4.80;;;2.30;;
71639;SDS011;60912;48.968;10.124;2023-04-25T14:32:06;4.97;;;2.40;;
71639;SDS011;60912;48.968;10.124;2023-04-25T14:34:32;4.97;;;2.30;;
71639;SDS011;60912;48.968;10.124;2023-04-25T14:36:57;6.13;;;2.30;;
71639;SDS011;60912;48.968;10.124;2023-04-25T14:39:22;4.70;;;2.27;;
71639;SDS011;60912;48.968;10.124;2023-04-25T14:41:48;4.73;;;2.50;;
71639;SDS011;60912;48.968;10.124;2023-04-25T14:44:13;5.17;;;2.40;;
71639;SDS011;60912;48.968;10.124;2023-04-25T14:46:38;4.60;;;2.37;;
71639;SDS011;60912;48.968;10.124;2023-04-25T14:49:04;5.78;;;2.30;;